Time,TemperatureF,DewpointF,PressureIn,WindDirection,WindDirectionDegrees,WindSpeedMPH,WindSpeedGustMPH,Humidity,HourlyPrecipIn,Conditions,Clouds,dailyrainin,SoftwareType,DateUTC
2013-05-16 00:04:00,58.0,34.0,29.78,South,169,3.0,6.0,40,0.00,,,0.00,weatherlink.com 1.10,2013-05-16 06:04:00,
2013-05-16 00:19:00,57.7,36.0,29.78,WSW,242,0.0,3.0,44,0.00,,,0.00,weatherlink.com 1.10,2013-05-16 06:19:00,
2013-05-16 00:34:00,57.8,35.0,29.77,SSW,202,0.0,3.0,42,0.00,,,0.00,weatherlink.com 1.10,2013-05-16 06:34:00,
2013-05-16 00:49:00,57.3,36.0,29.77,SSE,157,0.0,3.0,45,0.00,,,0.00,weatherlink.com 1.10,2013-05-16 06:49:00,
2013-05-16 01:04:00,56.1,35.0,29.77,SSE,167,0.0,11.0,45,0.00,,,0.00,weatherlink.com 1.10,2013-05-16 07:04:00,
2013-05-16 01:19:00,54.3,35.0,29.77,WSW,248,1.0,7.0,49,0.00,,,0.00,weatherlink.com 1.10,2013-05-16 07:19:00,
2013-05-16 01:34:00,53.4,35.0,29.77,West,260,0.0,4.0,51,0.00,,,0.00,weatherlink.com 1.10,2013-05-16 07:34:00,
2013-05-16 01:49:00,52.1,36.0,29.77,SSW,195,0.0,4.0,54,0.00,,,0.00,weatherlink.com 1.10,2013-05-16 07:49:00,
2013-05-16 02:04:00,53.3,36.0,29.76,South,187,0.0,1.0,53,0.00,,,0.00,weatherlink.com 1.10,2013-05-16 08:04:00,
2013-05-16 02:19:00,53.5,36.0,29.76,South,169,0.0,4.0,51,0.00,,,0.00,weatherlink.com 1.10,2013-05-16 08:19:00,
2013-05-16 02:34:00,54.8,36.0,29.76,South,180,0.0,5.0,49,0.00,,,0.00,weatherlink.com 1.10,2013-05-16 08:34:00,
2013-05-16 02:50:00,54.2,36.0,29.75,WSW,245,0.0,4.0,50,0.00,,,0.00,weatherlink.com 1.10,2013-05-16 08:50:00,
2013-05-16 03:05:00,52.6,37.0,29.75,WSW,256,1.0,4.0,55,0.00,,,0.00,weatherlink.com 1.10,2013-05-16 09:05:00,
2013-05-16 03:20:00,51.3,37.0,29.75,WSW,248,0.0,4.0,59,0.00,,,0.00,weatherlink.com 1.10,2013-05-16 09:20:00,
2013-05-16 03:35:00,50.6,37.0,29.75,WSW,251,0.0,1.0,60,0.00,,,0.00,weatherlink.com 1.10,2013-05-16 09:35:00,
2013-05-16 03:50:00,50.6,36.0,29.75,WSW,248,4.0,5.0,57,0.00,,,0.00,weatherlink.com 1.10,2013-05-16 09:50:00,
2013-05-16 04:05:00,49.6,36.0,29.74,SW,223,0.0,4.0,60,0.00,,,0.00,weatherlink.com 1.10,2013-05-16 10:05:00,
2013-05-16 04:20:00,49.9,37.0,29.74,SSW,211,0.0,0.0,61,0.00,,,0.00,weatherlink.com 1.10,2013-05-16 10:20:00,
2013-05-16 04:35:00,49.6,37.0,29.74,SSE,161,0.0,1.0,62,0.00,,,0.00,weatherlink.com 1.10,2013-05-16 10:35:00,
2013-05-16 04:50:00,48.5,38.0,29.74,SE,136,1.0,4.0,67,0.00,,,0.00,weatherlink.com 1.10,2013-05-16 10:50:00,
2013-05-16 05:05:00,48.3,39.0,29.74,SW,227,0.0,3.0,69,0.00,,,0.00,weatherlink.com 1.10,2013-05-16 11:05:00,
2013-05-16 05:20:00,48.3,38.0,29.74,WSW,252,0.0,3.0,67,0.00,,,0.00,weatherlink.com 1.10,2013-05-16 11:20:00,
2013-05-16 05:35:00,47.8,38.0,29.74,WSW,240,0.0,3.0,70,0.00,,,0.00,weatherlink.com 1.10,2013-05-16 11:35:00,
2013-05-16 05:50:00,46.9,38.0,29.74,WSW,241,0.0,3.0,72,0.00,,,0.00,weatherlink.com 1.10,2013-05-16 11:50:00,
2013-05-16 06:05:00,46.0,37.0,29.74,WSW,244,0.0,0.0,72,0.00,,,0.00,weatherlink.com 1.10,2013-05-16 12:05:00,
2013-05-16 06:20:00,46.5,37.0,29.74,WNW,303,0.0,3.0,70,0.00,,,0.00,weatherlink.com 1.10,2013-05-16 12:20:00,
2013-05-16 06:35:00,47.0,37.0,29.74,NW,308,2.0,5.0,68,0.00,,,0.00,weatherlink.com 1.10,2013-05-16 12:35:00,
2013-05-16 06:50:00,46.2,37.0,29.75,West,280,2.0,3.0,71,0.00,,,0.00,weatherlink.com 1.10,2013-05-16 12:50:00,
2013-05-16 07:05:00,45.8,37.0,29.75,NW,324,1.0,4.0,72,0.00,,,0.00,weatherlink.com 1.10,2013-05-16 13:05:00,
2013-05-16 07:20:00,47.1,37.0,29.75,North,11,0.0,3.0,69,0.00,,,0.00,weatherlink.com 1.10,2013-05-16 13:20:00,
2013-05-16 07:35:00,48.9,38.0,29.75,NNE,14,1.0,3.0,66,0.00,,,0.00,weatherlink.com 1.10,2013-05-16 13:35:00,
2013-05-16 07:50:00,49.8,38.0,29.75,NNE,28,0.0,3.0,65,0.00,,,0.00,weatherlink.com 1.10,2013-05-16 13:50:00,
2013-05-16 08:05:00,51.6,38.0,29.75,NNE,28,0.0,3.0,60,0.00,,,0.00,weatherlink.com 1.10,2013-05-16 14:05:00,
2013-05-16 08:35:00,54.1,40.0,29.75,West,271,1.0,3.0,60,0.00,,,0.00,weatherlink.com 1.10,2013-05-16 14:35:00,
2013-05-16 08:50:00,55.3,40.0,29.74,ENE,61,0.0,3.0,57,0.00,,,0.00,weatherlink.com 1.10,2013-05-16 14:50:00,
2013-05-16 09:05:00,56.6,41.0,29.74,NE,51,0.0,3.0,56,0.00,,,0.00,weatherlink.com 1.10,2013-05-16 15:05:00,
2013-05-16 09:20:00,58.4,43.0,29.74,NNE,22,2.0,5.0,56,0.00,,,0.00,weatherlink.com 1.10,2013-05-16 15:20:00,
2013-05-16 09:35:00,60.3,44.0,29.73,SE,134,2.0,3.0,55,0.00,,,0.00,weatherlink.com 1.10,2013-05-16 15:35:00,
2013-05-16 09:50:00,60.9,40.0,29.73,SSE,153,0.0,0.0,46,0.00,,,0.00,weatherlink.com 1.10,2013-05-16 15:50:00,
2013-05-16 10:05:00,60.7,40.0,29.73,NW,320,0.0,2.0,46,0.00,,,0.00,weatherlink.com 1.10,2013-05-16 16:05:00,
2013-05-16 10:20:00,60.6,40.0,29.73,NW,313,2.0,7.0,47,0.00,,,0.00,weatherlink.com 1.10,2013-05-16 16:20:00,
2013-05-16 10:35:00,59.4,39.0,29.73,WNW,290,11.0,15.0,48,0.00,,,0.00,weatherlink.com 1.10,2013-05-16 16:35:00,
2013-05-16 10:50:00,58.4,42.0,29.74,WNW,298,11.0,19.0,54,0.00,,,0.00,weatherlink.com 1.10,2013-05-16 16:50:00,
2013-05-16 11:05:00,59.6,42.0,29.74,WNW,284,6.0,13.0,53,0.00,,,0.00,weatherlink.com 1.10,2013-05-16 17:05:00,
2013-05-16 11:20:00,60.0,41.0,29.74,NW,321,5.0,10.0,49,0.00,,,0.00,weatherlink.com 1.10,2013-05-16 17:20:00,
2013-05-16 11:35:00,61.2,39.0,29.74,NW,310,2.0,11.0,44,0.00,,,0.00,weatherlink.com 1.10,2013-05-16 17:35:00,
2013-05-16 11:50:00,62.2,39.0,29.74,NW,306,8.0,11.0,43,0.00,,,0.00,weatherlink.com 1.10,2013-05-16 17:50:00,
2013-05-16 12:05:00,61.3,39.0,29.74,NNW,338,3.0,8.0,44,0.00,,,0.00,weatherlink.com 1.10,2013-05-16 18:05:00,
2013-05-16 12:20:00,61.9,38.0,29.73,NNW,344,0.0,6.0,42,0.00,,,0.00,weatherlink.com 1.10,2013-05-16 18:20:00,
2013-05-16 12:36:00,63.7,39.0,29.73,NNW,329,2.0,7.0,40,0.00,,,0.00,weatherlink.com 1.10,2013-05-16 18:36:00,
2013-05-16 12:51:00,64.5,39.0,29.72,North,9,0.0,3.0,39,0.00,,,0.00,weatherlink.com 1.10,2013-05-16 18:51:00,
2013-05-16 13:06:00,64.4,38.0,29.72,East,94,0.0,5.0,38,0.00,,,0.00,weatherlink.com 1.10,2013-05-16 19:06:00,
2013-05-16 13:21:00,64.3,39.0,29.71,SE,137,2.0,3.0,39,0.00,,,0.00,weatherlink.com 1.10,2013-05-16 19:21:00,
2013-05-16 13:36:00,65.3,38.0,29.71,NW,316,3.0,9.0,37,0.00,,,0.00,weatherlink.com 1.10,2013-05-16 19:36:00,
2013-05-16 13:51:00,65.9,39.0,29.70,NNE,15,1.0,8.0,37,0.00,,,0.00,weatherlink.com 1.10,2013-05-16 19:51:00,
2013-05-16 14:06:00,65.5,40.0,29.70,West,273,1.0,8.0,39,0.00,,,0.00,weatherlink.com 1.10,2013-05-16 20:06:00,
2013-05-16 14:21:00,65.8,38.0,29.70,East,97,2.0,9.0,36,0.00,,,0.00,weatherlink.com 1.10,2013-05-16 20:21:00,
2013-05-16 14:36:00,64.5,39.0,29.69,NE,40,1.0,4.0,39,0.00,,,0.00,weatherlink.com 1.10,2013-05-16 20:36:00,
2013-05-16 14:51:00,64.4,39.0,29.69,NE,55,2.0,6.0,40,0.00,,,0.00,weatherlink.com 1.10,2013-05-16 20:51:00,
2013-05-16 15:06:00,64.8,42.0,29.69,SE,146,2.0,3.0,43,0.00,,,0.00,weatherlink.com 1.10,2013-05-16 21:06:00,
2013-05-16 15:21:00,65.4,42.0,29.68,SE,131,1.0,2.0,42,0.00,,,0.00,weatherlink.com 1.10,2013-05-16 21:21:00,
2013-05-16 15:36:00,65.7,41.0,29.68,WNW,296,0.0,4.0,41,0.00,,,0.00,weatherlink.com 1.10,2013-05-16 21:36:00,
2013-05-16 15:51:00,66.0,40.0,29.68,ENE,65,1.0,5.0,38,0.00,,,0.00,weatherlink.com 1.10,2013-05-16 21:51:00,
2013-05-16 16:06:00,65.8,38.0,29.68,NW,311,8.0,11.0,36,0.00,,,0.00,weatherlink.com 1.10,2013-05-16 22:06:00,
2013-05-16 16:21:00,65.7,39.0,29.68,WSW,254,3.0,11.0,37,0.00,,,0.00,weatherlink.com 1.10,2013-05-16 22:21:00,
2013-05-16 16:36:00,65.5,38.0,29.68,West,278,3.0,10.0,37,0.00,,,0.00,weatherlink.com 1.10,2013-05-16 22:36:00,
2013-05-16 16:51:00,65.1,37.0,29.68,NW,313,6.0,14.0,36,0.00,,,0.00,weatherlink.com 1.10,2013-05-16 22:51:00,
2013-05-16 17:06:00,63.8,40.0,29.69,NW,321,9.0,15.0,42,0.00,,,0.00,weatherlink.com 1.10,2013-05-16 23:06:00,
2013-05-16 17:21:00,63.4,40.0,29.69,NW,320,9.0,12.0,43,0.00,,,0.00,weatherlink.com 1.10,2013-05-16 23:21:00,
2013-05-16 17:36:00,63.1,40.0,29.69,NW,321,6.0,12.0,43,0.00,,,0.00,weatherlink.com 1.10,2013-05-16 23:36:00,
2013-05-16 17:51:00,62.7,40.0,29.70,NNW,338,8.0,12.0,43,0.00,,,0.00,weatherlink.com 1.10,2013-05-16 23:51:00,
2013-05-16 18:06:00,62.7,40.0,29.70,NNW,347,1.0,8.0,43,0.00,,,0.00,weatherlink.com 1.10,2013-05-17 00:06:00,
2013-05-16 18:21:00,62.3,39.0,29.70,NW,304,7.0,8.0,43,0.00,,,0.00,weatherlink.com 1.10,2013-05-17 00:21:00,
2013-05-16 18:36:00,62.3,40.0,29.69,WNW,301,5.0,8.0,44,0.00,,,0.00,weatherlink.com 1.10,2013-05-17 00:36:00,
2013-05-16 18:51:00,62.1,40.0,29.69,WNW,302,5.0,10.0,44,0.00,,,0.00,weatherlink.com 1.10,2013-05-17 00:51:00,
2013-05-16 19:06:00,61.9,39.0,29.70,NW,315,4.0,8.0,43,0.00,,,0.00,weatherlink.com 1.10,2013-05-17 01:06:00,
2013-05-16 19:21:00,61.7,39.0,29.70,WNW,302,4.0,6.0,44,0.00,,,0.00,weatherlink.com 1.10,2013-05-17 01:21:00,
2013-05-16 19:36:00,61.4,40.0,29.70,NW,315,3.0,5.0,45,0.00,,,0.00,weatherlink.com 1.10,2013-05-17 01:36:00,
2013-05-16 19:51:00,61.2,41.0,29.71,NW,309,0.0,0.0,47,0.00,,,0.00,weatherlink.com 1.10,2013-05-17 01:51:00,
2013-05-16 20:06:00,60.7,39.0,29.71,NW,323,3.0,4.0,45,0.00,,,0.00,weatherlink.com 1.10,2013-05-17 02:06:00,
2013-05-16 20:21:00,60.0,38.0,29.71,NW,311,1.0,3.0,45,0.00,,,0.00,weatherlink.com 1.10,2013-05-17 02:21:00,
2013-05-16 20:36:00,59.2,39.0,29.72,NW,312,2.0,2.0,47,0.00,,,0.00,weatherlink.com 1.10,2013-05-17 02:36:00,
2013-05-16 20:51:00,58.4,39.0,29.72,NW,312,0.0,0.0,49,0.00,,,0.00,weatherlink.com 1.10,2013-05-17 02:51:00,
2013-05-16 21:06:00,57.5,39.0,29.73,NNW,346,2.0,5.0,50,0.00,,,0.00,weatherlink.com 1.10,2013-05-17 03:06:00,
2013-05-16 21:21:00,57.1,38.0,29.73,NNW,348,2.0,5.0,50,0.00,,,0.00,weatherlink.com 1.10,2013-05-17 03:21:00,
2013-05-16 21:36:00,56.6,38.0,29.73,NW,320,1.0,2.0,51,0.00,,,0.00,weatherlink.com 1.10,2013-05-17 03:36:00,
2013-05-16 21:51:00,55.6,38.0,29.73,NW,318,2.0,2.0,53,0.00,,,0.00,weatherlink.com 1.10,2013-05-17 03:51:00,
2013-05-16 22:06:00,54.6,39.0,29.74,NW,322,0.0,0.0,55,0.00,,,0.00,weatherlink.com 1.10,2013-05-17 04:06:00,
2013-05-16 22:21:00,53.6,39.0,29.74,NW,318,0.0,0.0,58,0.00,,,0.00,weatherlink.com 1.10,2013-05-17 04:21:00,
2013-05-16 22:36:00,53.8,39.0,29.74,NW,319,0.0,0.0,58,0.00,,,0.00,weatherlink.com 1.10,2013-05-17 04:36:00,
2013-05-16 22:51:00,53.4,39.0,29.75,NW,317,0.0,0.0,59,0.00,,,0.00,weatherlink.com 1.10,2013-05-17 04:51:00,
2013-05-16 23:06:00,52.3,39.0,29.75,NW,316,0.0,0.0,60,0.00,,,0.00,weatherlink.com 1.10,2013-05-17 05:06:00,
2013-05-16 23:21:00,51.0,39.0,29.75,West,263,0.0,0.0,63,0.00,,,0.00,weatherlink.com 1.10,2013-05-17 05:21:00,
2013-05-16 23:36:00,50.0,39.0,29.75,West,263,0.0,0.0,65,0.00,,,0.00,weatherlink.com 1.10,2013-05-17 05:36:00,
2013-05-16 23:51:00,49.5,39.0,29.76,West,263,0.0,0.0,68,0.00,,,0.00,weatherlink.com 1.10,2013-05-17 05:51:00,